sensor_id;sensor_type;location;lat;lon;timestamp;temperature;humidity
11818;DHT22;5966;52.402;5.322;2023-12-20T00:04:31;7.40;99.90
11818;DHT22;5966;52.402;5.322;2023-12-20T00:07:22;7.40;99.90
11818;DHT22;5966;52.402;5.322;2023-12-20T00:10:04;7.40;99.90
11818;DHT22;5966;52.402;5.322;2023-12-20T00:12:43;7.40;99.90
11818;DHT22;5966;52.402;5.322;2023-12-20T00:15:37;7.40;99.90
11818;DHT22;5966;52.402;5.322;2023-12-20T00:18:07;7.40;99.90
11818;DHT22;5966;52.402;5.322;2023-12-20T00:20:59;7.40;99.90
11818;DHT22;5966;52.402;5.322;2023-12-20T00:23:35;7.40;99.90
11818;DHT22;5966;52.402;5.322;2023-12-20T00:29:53;7.40;99.90
11818;DHT22;5966;52.402;5.322;2023-12-20T00:32:43;7.40;99.90
11818;DHT22;5966;52.402;5.322;2023-12-20T00:35:17;7.40;99.90
11818;DHT22;5966;52.402;5.322;2023-12-20T00:38:34;7.40;99.90
11818;DHT22;5966;52.402;5.322;2023-12-20T00:41:34;7.40;99.90
11818;DHT22;5966;52.402;5.322;2023-12-20T00:44:15;7.40;99.90
11818;DHT22;5966;52.402;5.322;2023-12-20T00:46:57;7.40;99.90
11818;DHT22;5966;52.402;5.322;2023-12-20T00:49:56;7.40;99.90
11818;DHT22;5966;52.402;5.322;2023-12-20T00:52:53;7.40;99.90
11818;DHT22;5966;52.402;5.322;2023-12-20T00:55:47;7.40;99.90
11818;DHT22;5966;52.402;5.322;2023-12-20T00:58:38;7.40;99.90
11818;DHT22;5966;52.402;5.322;2023-12-20T01:01:25;7.40;99.90
11818;DHT22;5966;52.402;5.322;2023-12-20T01:04:24;7.40;99.90
11818;DHT22;5966;52.402;5.322;2023-12-20T01:07:27;7.40;99.90
11818;DHT22;5966;52.402;5.322;2023-12-20T01:10:12;7.40;99.90
11818;DHT22;5966;52.402;5.322;2023-12-20T01:13:37;7.50;99.90
11818;DHT22;5966;52.402;5.322;2023-12-20T01:17:04;7.50;99.90
11818;DHT22;5966;52.402;5.322;2023-12-20T01:19:47;7.50;99.90
11818;DHT22;5966;52.402;5.322;2023-12-20T01:22:25;7.50;99.90
11818;DHT22;5966;52.402;5.322;2023-12-20T01:24:59;7.50;99.90
11818;DHT22;5966;52.402;5.322;2023-12-20T01:27:40;7.60;99.90
11818;DHT22;5966;52.402;5.322;2023-12-20T01:30:17;7.60;99.90
11818;DHT22;5966;52.402;5.322;2023-12-20T01:32:48;7.50;99.90
11818;DHT22;5966;52.402;5.322;2023-12-20T01:35:18;7.60;99.90
11818;DHT22;5966;52.402;5.322;2023-12-20T01:37:48;7.50;99.90
11818;DHT22;5966;52.402;5.322;2023-12-20T01:40:19;7.60;99.90
11818;DHT22;5966;52.402;5.322;2023-12-20T01:43:04;7.60;99.90
11818;DHT22;5966;52.402;5.322;2023-12-20T01:45:43;7.60;99.90
11818;DHT22;5966;52.402;5.322;2023-12-20T01:48:23;7.60;99.90
11818;DHT22;5966;52.402;5.322;2023-12-20T01:50:56;7.60;99.90
11818;DHT22;5966;52.402;5.322;2023-12-20T01:53:33;7.60;99.90
11818;DHT22;5966;52.402;5.322;2023-12-20T01:56:04;7.60;99.90
11818;DHT22;5966;52.402;5.322;2023-12-20T01:58:41;7.60;99.90
11818;DHT22;5966;52.402;5.322;2023-12-20T02:01:17;7.60;99.90
11818;DHT22;5966;52.402;5.322;2023-12-20T02:03:55;7.60;99.90
11818;DHT22;5966;52.402;5.322;2023-12-20T02:06:25;7.60;99.90
11818;DHT22;5966;52.402;5.322;2023-12-20T02:09:04;7.60;99.90
11818;DHT22;5966;52.402;5.322;2023-12-20T02:11:38;7.60;99.90
11818;DHT22;5966;52.402;5.322;2023-12-20T02:14:12;7.60;99.90
11818;DHT22;5966;52.402;5.322;2023-12-20T02:16:44;7.60;99.90
11818;DHT22;5966;52.402;5.322;2023-12-20T02:19:14;7.60;99.90
11818;DHT22;5966;52.402;5.322;2023-12-20T02:22:05;7.60;99.90
11818;DHT22;5966;52.402;5.322;2023-12-20T02:24:34;7.60;99.90
11818;DHT22;5966;52.402;5.322;2023-12-20T02:27:09;7.60;99.90
11818;DHT22;5966;52.402;5.322;2023-12-20T02:29:40;7.60;99.90
11818;DHT22;5966;52.402;5.322;2023-12-20T02:32:18;7.60;99.90
11818;DHT22;5966;52.402;5.322;2023-12-20T02:35:01;7.60;99.90
11818;DHT22;5966;52.402;5.322;2023-12-20T02:37:49;7.60;99.90
11818;DHT22;5966;52.402;5.322;2023-12-20T02:40:19;7.60;99.90
11818;DHT22;5966;52.402;5.322;2023-12-20T02:42:48;7.60;99.90
11818;DHT22;5966;52.402;5.322;2023-12-20T02:45:21;7.60;99.90
11818;DHT22;5966;52.402;5.322;2023-12-20T02:47:55;7.70;99.90
11818;DHT22;5966;52.402;5.322;2023-12-20T02:50:31;7.70;99.90
11818;DHT22;5966;52.402;5.322;2023-12-20T02:53:15;7.70;99.90
11818;DHT22;5966;52.402;5.322;2023-12-20T02:55:45;7.70;99.90
11818;DHT22;5966;52.402;5.322;2023-12-20T02:58:20;7.70;99.90
11818;DHT22;5966;52.402;5.322;2023-12-20T03:00:52;7.70;99.90
11818;DHT22;5966;52.402;5.322;2023-12-20T03:03:38;7.70;99.90
11818;DHT22;5966;52.402;5.322;2023-12-20T03:06:21;7.70;99.90
11818;DHT22;5966;52.402;5.322;2023-12-20T03:08:58;7.70;99.90
11818;DHT22;5966;52.402;5.322;2023-12-20T03:11:30;7.70;99.90
11818;DHT22;5966;52.402;5.322;2023-12-20T03:13:59;7.70;99.90
11818;DHT22;5966;52.402;5.322;2023-12-20T03:16:28;7.70;99.90
11818;DHT22;5966;52.402;5.322;2023-12-20T03:19:03;7.60;99.90
11818;DHT22;5966;52.402;5.322;2023-12-20T03:21:37;7.60;99.90
11818;DHT22;5966;52.402;5.322;2023-12-20T03:24:16;7.60;99.90
11818;DHT22;5966;52.402;5.322;2023-12-20T03:26:47;7.60;99.90
11818;DHT22;5966;52.402;5.322;2023-12-20T03:29:17;7.60;99.90
11818;DHT22;5966;52.402;5.322;2023-12-20T03:31:51;7.60;99.90
11818;DHT22;5966;52.402;5.322;2023-12-20T03:34:26;7.60;99.90
11818;DHT22;5966;52.402;5.322;2023-12-20T03:37:00;7.60;99.90
11818;DHT22;5966;52.402;5.322;2023-12-20T03:39:32;7.60;99.90
11818;DHT22;5966;52.402;5.322;2023-12-20T03:42:06;7.60;99.90
11818;DHT22;5966;52.402;5.322;2023-12-20T03:44:34;7.60;99.90
11818;DHT22;5966;52.402;5.322;2023-12-20T03:47:08;7.60;99.90
11818;DHT22;5966;52.402;5.322;2023-12-20T03:49:47;7.60;99.90
11818;DHT22;5966;52.402;5.322;2023-12-20T03:52:17;7.60;99.90
11818;DHT22;5966;52.402;5.322;2023-12-20T03:54:57;7.60;99.90
11818;DHT22;5966;52.402;5.322;2023-12-20T03:57:31;7.60;99.90
11818;DHT22;5966;52.402;5.322;2023-12-20T04:00:05;7.70;99.90
11818;DHT22;5966;52.402;5.322;2023-12-20T04:02:41;7.70;99.90
11818;DHT22;5966;52.402;5.322;2023-12-20T04:05:12;7.70;99.90
11818;DHT22;5966;52.402;5.322;2023-12-20T04:07:42;7.70;99.90
11818;DHT22;5966;52.402;5.322;2023-12-20T04:10:17;7.70;99.90
11818;DHT22;5966;52.402;5.322;2023-12-20T04:12:46;7.70;99.90
11818;DHT22;5966;52.402;5.322;2023-12-20T04:15:17;7.70;99.90
11818;DHT22;5966;52.402;5.322;2023-12-20T04:17:50;7.70;99.90
11818;DHT22;5966;52.402;5.322;2023-12-20T04:20:21;7.70;99.90
11818;DHT22;5966;52.402;5.322;2023-12-20T04:22:50;7.70;99.90
11818;DHT22;5966;52.402;5.322;2023-12-20T04:25:29;7.70;99.90
11818;DHT22;5966;52.402;5.322;2023-12-20T04:27:57;7.70;99.90
11818;DHT22;5966;52.402;5.322;2023-12-20T04:30:26;7.70;99.90
11818;DHT22;5966;52.402;5.322;2023-12-20T04:32:56;7.70;99.90
11818;DHT22;5966;52.402;5.322;2023-12-20T04:35:39;7.70;99.90
11818;DHT22;5966;52.402;5.322;2023-12-20T04:38:23;7.70;99.90
11818;DHT22;5966;52.402;5.322;2023-12-20T04:41:13;7.80;99.90
11818;DHT22;5966;52.402;5.322;2023-12-20T04:43:52;7.70;99.90
11818;DHT22;5966;52.402;5.322;2023-12-20T04:46:21;7.70;99.90
11818;DHT22;5966;52.402;5.322;2023-12-20T04:48:50;7.80;99.90
11818;DHT22;5966;52.402;5.322;2023-12-20T04:51:20;7.70;99.90
11818;DHT22;5966;52.402;5.322;2023-12-20T04:53:54;7.70;99.90
11818;DHT22;5966;52.402;5.322;2023-12-20T04:56:26;7.80;99.90
11818;DHT22;5966;52.402;5.322;2023-12-20T04:58:58;7.70;99.90
11818;DHT22;5966;52.402;5.322;2023-12-20T05:01:27;7.80;99.90
11818;DHT22;5966;52.402;5.322;2023-12-20T05:04:02;7.80;99.90
11818;DHT22;5966;52.402;5.322;2023-12-20T05:06:31;7.80;99.90
11818;DHT22;5966;52.402;5.322;2023-12-20T05:09:03;7.80;99.90
11818;DHT22;5966;52.402;5.322;2023-12-20T05:11:39;7.80;99.90
11818;DHT22;5966;52.402;5.322;2023-12-20T05:14:10;7.80;99.90
11818;DHT22;5966;52.402;5.322;2023-12-20T05:16:39;7.80;99.90
11818;DHT22;5966;52.402;5.322;2023-12-20T05:19:10;7.90;99.90
11818;DHT22;5966;52.402;5.322;2023-12-20T05:21:47;7.90;99.90
11818;DHT22;5966;52.402;5.322;2023-12-20T05:24:23;7.90;99.90
11818;DHT22;5966;52.402;5.322;2023-12-20T05:26:56;7.90;99.90
11818;DHT22;5966;52.402;5.322;2023-12-20T05:29:37;7.90;99.90
11818;DHT22;5966;52.402;5.322;2023-12-20T05:32:06;7.90;99.90
11818;DHT22;5966;52.402;5.322;2023-12-20T05:34:38;7.90;99.90
11818;DHT22;5966;52.402;5.322;2023-12-20T05:37:07;7.90;99.90
11818;DHT22;5966;52.402;5.322;2023-12-20T05:39:38;7.90;99.90
11818;DHT22;5966;52.402;5.322;2023-12-20T05:42:13;7.90;99.90
11818;DHT22;5966;52.402;5.322;2023-12-20T05:45:01;7.90;99.90
11818;DHT22;5966;52.402;5.322;2023-12-20T05:47:33;7.90;99.90
11818;DHT22;5966;52.402;5.322;2023-12-20T05:50:07;8.00;99.90
11818;DHT22;5966;52.402;5.322;2023-12-20T05:52:40;8.00;99.90
11818;DHT22;5966;52.402;5.322;2023-12-20T05:55:24;8.00;99.90
11818;DHT22;5966;52.402;5.322;2023-12-20T05:58:03;7.90;99.90
11818;DHT22;5966;52.402;5.322;2023-12-20T06:00:37;7.90;99.90
11818;DHT22;5966;52.402;5.322;2023-12-20T06:03:08;8.00;99.90
11818;DHT22;5966;52.402;5.322;2023-12-20T06:05:39;8.00;99.90
11818;DHT22;5966;52.402;5.322;2023-12-20T06:08:11;8.00;99.90
11818;DHT22;5966;52.402;5.322;2023-12-20T06:10:40;8.00;99.90
11818;DHT22;5966;52.402;5.322;2023-12-20T06:13:21;8.00;99.90
11818;DHT22;5966;52.402;5.322;2023-12-20T06:15:50;8.00;99.90
11818;DHT22;5966;52.402;5.322;2023-12-20T06:18:24;8.00;99.90
11818;DHT22;5966;52.402;5.322;2023-12-20T06:20:53;8.00;99.90
11818;DHT22;5966;52.402;5.322;2023-12-20T06:23:22;8.00;99.90
11818;DHT22;5966;52.402;5.322;2023-12-20T06:25:58;8.10;99.90
11818;DHT22;5966;52.402;5.322;2023-12-20T06:28:30;8.10;99.90
11818;DHT22;5966;52.402;5.322;2023-12-20T06:31:00;8.10;99.90
11818;DHT22;5966;52.402;5.322;2023-12-20T06:33:30;8.10;99.90
11818;DHT22;5966;52.402;5.322;2023-12-20T06:36:04;8.10;99.90
11818;DHT22;5966;52.402;5.322;2023-12-20T06:38:44;8.10;99.90
11818;DHT22;5966;52.402;5.322;2023-12-20T06:41:13;8.10;99.90
11818;DHT22;5966;52.402;5.322;2023-12-20T06:43:44;8.10;99.90
11818;DHT22;5966;52.402;5.322;2023-12-20T06:46:16;8.10;99.90
11818;DHT22;5966;52.402;5.322;2023-12-20T06:48:46;8.10;99.90
11818;DHT22;5966;52.402;5.322;2023-12-20T06:51:17;8.10;99.90
11818;DHT22;5966;52.402;5.322;2023-12-20T06:53:47;8.10;99.90
11818;DHT22;5966;52.402;5.322;2023-12-20T06:56:16;8.20;99.90
11818;DHT22;5966;52.402;5.322;2023-12-20T06:58:48;8.20;99.90
11818;DHT22;5966;52.402;5.322;2023-12-20T07:01:18;8.20;99.90
11818;DHT22;5966;52.402;5.322;2023-12-20T07:03:49;8.20;99.90
11818;DHT22;5966;52.402;5.322;2023-12-20T07:06:18;8.10;99.90
11818;DHT22;5966;52.402;5.322;2023-12-20T07:08:52;8.20;99.90
11818;DHT22;5966;52.402;5.322;2023-12-20T07:11:23;8.20;99.90
11818;DHT22;5966;52.402;5.322;2023-12-20T07:13:58;8.20;99.90
11818;DHT22;5966;52.402;5.322;2023-12-20T07:16:31;8.20;99.90
11818;DHT22;5966;52.402;5.322;2023-12-20T07:19:02;8.20;99.90
11818;DHT22;5966;52.402;5.322;2023-12-20T07:21:31;8.20;99.90
11818;DHT22;5966;52.402;5.322;2023-12-20T07:24:05;8.20;99.90
11818;DHT22;5966;52.402;5.322;2023-12-20T07:26:35;8.20;99.90
11818;DHT22;5966;52.402;5.322;2023-12-20T07:29:06;8.20;99.90
11818;DHT22;5966;52.402;5.322;2023-12-20T07:31:37;8.20;99.90
11818;DHT22;5966;52.402;5.322;2023-12-20T07:34:07;8.20;99.90
11818;DHT22;5966;52.402;5.322;2023-12-20T07:36:43;8.20;99.90
11818;DHT22;5966;52.402;5.322;2023-12-20T07:39:12;8.20;99.90
11818;DHT22;5966;52.402;5.322;2023-12-20T07:41:45;8.20;99.90
11818;DHT22;5966;52.402;5.322;2023-12-20T07:44:36;8.20;99.90
11818;DHT22;5966;52.402;5.322;2023-12-20T07:47:06;8.20;99.90
11818;DHT22;5966;52.402;5.322;2023-12-20T07:49:36;8.20;99.90
11818;DHT22;5966;52.402;5.322;2023-12-20T07:52:07;8.30;99.90
11818;DHT22;5966;52.402;5.322;2023-12-20T07:54:41;8.30;99.90
11818;DHT22;5966;52.402;5.322;2023-12-20T07:57:15;8.30;99.90
11818;DHT22;5966;52.402;5.322;2023-12-20T07:59:46;8.30;99.90
11818;DHT22;5966;52.402;5.322;2023-12-20T08:02:18;8.30;99.90
11818;DHT22;5966;52.402;5.322;2023-12-20T08:04:50;8.30;99.90
11818;DHT22;5966;52.402;5.322;2023-12-20T08:07:20;8.30;99.90
11818;DHT22;5966;52.402;5.322;2023-12-20T08:09:48;8.40;99.90
11818;DHT22;5966;52.402;5.322;2023-12-20T08:12:18;8.40;99.90
11818;DHT22;5966;52.402;5.322;2023-12-20T08:14:50;8.40;99.90
11818;DHT22;5966;52.402;5.322;2023-12-20T08:17:33;8.40;99.90
11818;DHT22;5966;52.402;5.322;2023-12-20T08:20:03;8.40;99.90
11818;DHT22;5966;52.402;5.322;2023-12-20T08:26:23;8.40;99.90
11818;DHT22;5966;52.402;5.322;2023-12-20T08:33:21;8.40;99.90
11818;DHT22;5966;52.402;5.322;2023-12-20T08:35:49;8.40;99.90
11818;DHT22;5966;52.402;5.322;2023-12-20T08:38:18;8.50;99.90
11818;DHT22;5966;52.402;5.322;2023-12-20T08:45:02;8.50;99.90
11818;DHT22;5966;52.402;5.322;2023-12-20T08:47:44;8.50;99.90
11818;DHT22;5966;52.402;5.322;2023-12-20T08:50:35;8.50;99.90
11818;DHT22;5966;52.402;5.322;2023-12-20T08:53:36;8.50;99.90
11818;DHT22;5966;52.402;5.322;2023-12-20T08:56:12;8.50;99.90
11818;DHT22;5966;52.402;5.322;2023-12-20T09:03:25;8.50;99.90
11818;DHT22;5966;52.402;5.322;2023-12-20T09:06:35;8.60;99.90
11818;DHT22;5966;52.402;5.322;2023-12-20T09:09:12;8.60;99.90
11818;DHT22;5966;52.402;5.322;2023-12-20T09:12:11;8.60;99.90
11818;DHT22;5966;52.402;5.322;2023-12-20T09:15:13;8.60;99.90
11818;DHT22;5966;52.402;5.322;2023-12-20T09:18:23;8.60;99.90
11818;DHT22;5966;52.402;5.322;2023-12-20T09:21:26;8.60;99.90
11818;DHT22;5966;52.402;5.322;2023-12-20T09:31:26;8.60;99.90
11818;DHT22;5966;52.402;5.322;2023-12-20T09:42:17;8.70;99.90
11818;DHT22;5966;52.402;5.322;2023-12-20T09:45:27;8.80;99.90
11818;DHT22;5966;52.402;5.322;2023-12-20T10:26:03;8.80;99.90
11818;DHT22;5966;52.402;5.322;2023-12-20T10:48:27;8.90;99.90
11818;DHT22;5966;52.402;5.322;2023-12-20T10:51:33;9.00;99.90
11818;DHT22;5966;52.402;5.322;2023-12-20T10:54:28;9.00;99.90
11818;DHT22;5966;52.402;5.322;2023-12-20T10:57:40;8.90;99.90
11818;DHT22;5966;52.402;5.322;2023-12-20T11:50:49;9.20;99.90
11818;DHT22;5966;52.402;5.322;2023-12-20T11:53:42;9.20;99.90
11818;DHT22;5966;52.402;5.322;2023-12-20T11:56:15;9.20;99.90
11818;DHT22;5966;52.402;5.322;2023-12-20T11:59:03;9.20;99.90
11818;DHT22;5966;52.402;5.322;2023-12-20T12:01:53;9.20;99.90
11818;DHT22;5966;52.402;5.322;2023-12-20T12:04:43;9.20;99.90
11818;DHT22;5966;52.402;5.322;2023-12-20T12:07:36;9.20;99.90
11818;DHT22;5966;52.402;5.322;2023-12-20T12:10:21;9.20;99.90
11818;DHT22;5966;52.402;5.322;2023-12-20T12:13:04;9.10;99.90
11818;DHT22;5966;52.402;5.322;2023-12-20T12:15:33;9.20;99.90
11818;DHT22;5966;52.402;5.322;2023-12-20T12:18:42;9.20;99.90
11818;DHT22;5966;52.402;5.322;2023-12-20T12:21:22;9.20;99.90
11818;DHT22;5966;52.402;5.322;2023-12-20T12:24:09;9.20;99.90
11818;DHT22;5966;52.402;5.322;2023-12-20T12:26:50;9.20;99.90
11818;DHT22;5966;52.402;5.322;2023-12-20T12:29:19;9.20;99.90
11818;DHT22;5966;52.402;5.322;2023-12-20T12:31:49;9.20;99.90
11818;DHT22;5966;52.402;5.322;2023-12-20T12:35:02;9.20;99.90
11818;DHT22;5966;52.402;5.322;2023-12-20T12:37:34;9.20;99.90
11818;DHT22;5966;52.402;5.322;2023-12-20T12:40:42;9.20;99.90
11818;DHT22;5966;52.402;5.322;2023-12-20T12:43:11;9.20;99.90
11818;DHT22;5966;52.402;5.322;2023-12-20T12:46:35;9.20;99.90
11818;DHT22;5966;52.402;5.322;2023-12-20T12:49:43;9.20;99.90
11818;DHT22;5966;52.402;5.322;2023-12-20T12:52:23;9.20;99.90
11818;DHT22;5966;52.402;5.322;2023-12-20T12:54:55;9.20;99.90
11818;DHT22;5966;52.402;5.322;2023-12-20T13:31:16;9.20;99.90
11818;DHT22;5966;52.402;5.322;2023-12-20T13:33:53;9.10;99.90
11818;DHT22;5966;52.402;5.322;2023-12-20T13:36:41;9.20;99.90
11818;DHT22;5966;52.402;5.322;2023-12-20T13:39:18;9.20;99.90
11818;DHT22;5966;52.402;5.322;2023-12-20T13:42:30;9.20;99.90
11818;DHT22;5966;52.402;5.322;2023-12-20T13:45:52;9.10;99.90
11818;DHT22;5966;52.402;5.322;2023-12-20T13:48:51;9.20;99.90
11818;DHT22;5966;52.402;5.322;2023-12-20T13:56:13;9.10;99.90
11818;DHT22;5966;52.402;5.322;2023-12-20T13:59:28;9.10;99.90
11818;DHT22;5966;52.402;5.322;2023-12-20T14:24:11;9.10;99.90
11818;DHT22;5966;52.402;5.322;2023-12-20T14:36:01;9.10;99.90
11818;DHT22;5966;52.402;5.322;2023-12-20T14:38:41;9.10;99.90
11818;DHT22;5966;52.402;5.322;2023-12-20T14:41:50;9.10;99.90
11818;DHT22;5966;52.402;5.322;2023-12-20T14:52:33;9.20;99.90
11818;DHT22;5966;52.402;5.322;2023-12-20T15:03:48;9.20;99.90
11818;DHT22;5966;52.402;5.322;2023-12-20T15:14:32;9.20;99.90
11818;DHT22;5966;52.402;5.322;2023-12-20T15:39:34;9.20;99.90
11818;DHT22;5966;52.402;5.322;2023-12-20T15:46:11;9.20;99.90
11818;DHT22;5966;52.402;5.322;2023-12-20T16:00:29;9.20;99.90
11818;DHT22;5966;52.402;5.322;2023-12-20T16:15:11;9.20;99.90
11818;DHT22;5966;52.402;5.322;2023-12-20T16:21:42;9.20;99.90
11818;DHT22;5966;52.402;5.322;2023-12-20T16:24:28;9.20;99.90
11818;DHT22;5966;52.402;5.322;2023-12-20T16:27:07;9.20;99.90
11818;DHT22;5966;52.402;5.322;2023-12-20T16:29:36;9.20;99.90
11818;DHT22;5966;52.402;5.322;2023-12-20T17:05:39;8.90;99.90
11818;DHT22;5966;52.402;5.322;2023-12-20T17:26:46;8.90;99.90
11818;DHT22;5966;52.402;5.322;2023-12-20T17:29:26;8.90;99.90
11818;DHT22;5966;52.402;5.322;2023-12-20T17:31:59;8.90;99.90
11818;DHT22;5966;52.402;5.322;2023-12-20T17:34:41;8.90;99.90
11818;DHT22;5966;52.402;5.322;2023-12-20T17:37:12;8.90;99.90
11818;DHT22;5966;52.402;5.322;2023-12-20T17:39:41;8.90;99.90
11818;DHT22;5966;52.402;5.322;2023-12-20T17:42:22;8.90;99.90
11818;DHT22;5966;52.402;5.322;2023-12-20T18:25:16;9.00;99.90
11818;DHT22;5966;52.402;5.322;2023-12-20T18:28:42;9.00;99.90
11818;DHT22;5966;52.402;5.322;2023-12-20T18:32:00;9.10;99.90
11818;DHT22;5966;52.402;5.322;2023-12-20T18:35:09;9.10;99.90
11818;DHT22;5966;52.402;5.322;2023-12-20T18:42:10;9.10;99.90
11818;DHT22;5966;52.402;5.322;2023-12-20T18:45:41;9.10;99.90
11818;DHT22;5966;52.402;5.322;2023-12-20T18:52:33;9.10;99.90
11818;DHT22;5966;52.402;5.322;2023-12-20T18:56:22;9.10;99.90
11818;DHT22;5966;52.402;5.322;2023-12-20T18:59:31;9.10;99.90
11818;DHT22;5966;52.402;5.322;2023-12-20T19:02:39;9.10;99.90
11818;DHT22;5966;52.402;5.322;2023-12-20T19:09:35;9.10;99.90
11818;DHT22;5966;52.402;5.322;2023-12-20T19:12:15;9.10;99.90
11818;DHT22;5966;52.402;5.322;2023-12-20T19:22:20;9.20;99.90
11818;DHT22;5966;52.402;5.322;2023-12-20T19:25:23;9.20;99.90
11818;DHT22;5966;52.402;5.322;2023-12-20T19:28:44;9.20;99.90
11818;DHT22;5966;52.402;5.322;2023-12-20T19:32:01;9.20;99.90
11818;DHT22;5966;52.402;5.322;2023-12-20T19:35:32;9.20;99.90
11818;DHT22;5966;52.402;5.322;2023-12-20T19:49:31;9.20;99.90
11818;DHT22;5966;52.402;5.322;2023-12-20T19:52:04;9.20;99.90
11818;DHT22;5966;52.402;5.322;2023-12-20T19:54:36;9.20;99.90
11818;DHT22;5966;52.402;5.322;2023-12-20T19:57:09;9.20;99.90
11818;DHT22;5966;52.402;5.322;2023-12-20T19:59:42;9.20;99.90
11818;DHT22;5966;52.402;5.322;2023-12-20T20:03:06;9.20;99.90
11818;DHT22;5966;52.402;5.322;2023-12-20T20:05:54;9.20;99.90
11818;DHT22;5966;52.402;5.322;2023-12-20T20:12:54;9.20;99.90
11818;DHT22;5966;52.402;5.322;2023-12-20T21:20:26;9.40;99.90
11818;DHT22;5966;52.402;5.322;2023-12-20T21:24:12;9.40;99.90
11818;DHT22;5966;52.402;5.322;2023-12-20T21:27:15;9.40;99.90
11818;DHT22;5966;52.402;5.322;2023-12-20T21:42:16;9.40;99.90
11818;DHT22;5966;52.402;5.322;2023-12-20T21:44:50;9.50;99.90
11818;DHT22;5966;52.402;5.322;2023-12-20T21:47:19;9.50;99.90
11818;DHT22;5966;52.402;5.322;2023-12-20T21:50:19;9.50;99.90
11818;DHT22;5966;52.402;5.322;2023-12-20T21:55:46;9.50;99.90
11818;DHT22;5966;52.402;5.322;2023-12-20T21:59:17;9.60;99.90
11818;DHT22;5966;52.402;5.322;2023-12-20T22:06:33;9.60;99.90
11818;DHT22;5966;52.402;5.322;2023-12-20T22:12:59;9.60;99.90
11818;DHT22;5966;52.402;5.322;2023-12-20T23:25:18;9.90;99.90
11818;DHT22;5966;52.402;5.322;2023-12-20T23:47:04;10.00;99.90
